N311TY KSAN-KSNA
Flight info
| Callsign | N311TY |
|---|---|
| Flight time | 0h 43m |
| Altitude | 6000 |
| Route | OCN V23 SLI |
| Aircraft | C208/L-SDFGR/C |
Departure
| Time | 2026-05-05 05:33 |
|---|---|
| Airport | San Diego International Airport (KSAN) |
Arrival
| Time | 2026-05-05 06:16 |
|---|---|
| Airport | John Wayne Orange County International Airport (KSNA) |
| Time | Latitude | Longitude | Altitude | Speed | Heading |
|---|---|---|---|---|---|
| 2026-05-05 04:56 | 32.73413 | -117.17971 | 30 ft | 0 kts | 290° |
| 2026-05-05 05:22 | 32.73408 | -117.17957 | 33 ft | 4 kts | 288° |
| 2026-05-05 05:22 | 32.73415 | -117.17938 | 33 ft | 0 kts | 199° |
| 2026-05-05 05:23 | 32.73410 | -117.17940 | 33 ft | 0 kts | 198° |
| 2026-05-05 05:23 | 32.73398 | -117.17945 | 33 ft | 5 kts | 198° |
| 2026-05-05 05:23 | 32.73379 | -117.17951 | 33 ft | 0 kts | 195° |
| 2026-05-05 05:24 | 32.73373 | -117.17952 | 33 ft | 0 kts | 181° |
| 2026-05-05 05:26 | 32.73364 | -117.17953 | 32 ft | 0 kts | 184° |
| 2026-05-05 05:26 | 32.73351 | -117.17954 | 32 ft | 5 kts | 188° |
| 2026-05-05 05:26 | 32.73290 | -117.17973 | 30 ft | 11 kts | 194° |
| 2026-05-05 05:26 | 32.73223 | -117.17928 | 28 ft | 16 kts | 114° |
| 2026-05-05 05:27 | 32.73186 | -117.17788 | 31 ft | 19 kts | 105° |
| 2026-05-05 05:27 | 32.73147 | -117.17628 | 29 ft | 22 kts | 106° |
| 2026-05-05 05:27 | 32.73095 | -117.17552 | 29 ft | 0 kts | 147° |
| 2026-05-05 05:30 | 32.73039 | -117.17526 | 30 ft | 11 kts | 178° |
| 2026-05-05 05:30 | 32.73013 | -117.17570 | 30 ft | 11 kts | 288° |
| 2026-05-05 05:31 | 32.73023 | -117.17600 | 29 ft | 0 kts | 292° |
| 2026-05-05 05:32 | 32.73024 | -117.17603 | 31 ft | 5 kts | 292° |
| 2026-05-05 05:32 | 32.73079 | -117.17833 | 27 ft | 72 kts | 287° |
| 2026-05-05 05:32 | 32.73299 | -117.18650 | 180 ft | 122 kts | 283° |
| 2026-05-05 05:32 | 32.73540 | -117.19659 | 520 ft | 126 kts | 284° |
| 2026-05-05 05:33 | 32.73891 | -117.20503 | 1088 ft | 106 kts | 300° |
| 2026-05-05 05:33 | 32.74247 | -117.21164 | 1547 ft | 91 kts | 296° |
| 2026-05-05 05:33 | 32.74602 | -117.21829 | 1608 ft | 97 kts | 295° |
| 2026-05-05 05:33 | 32.74969 | -117.22513 | 1704 ft | 100 kts | 297° |
| 2026-05-05 05:34 | 32.75342 | -117.23210 | 1805 ft | 100 kts | 295° |
| 2026-05-05 05:34 | 32.75717 | -117.23918 | 1900 ft | 103 kts | 295° |
| 2026-05-05 05:34 | 32.76089 | -117.24619 | 2122 ft | 99 kts | 295° |
| 2026-05-05 05:34 | 32.76460 | -117.25312 | 2275 ft | 100 kts | 297° |
| 2026-05-05 05:35 | 32.76824 | -117.25998 | 2428 ft | 99 kts | 296° |
| 2026-05-05 05:35 | 32.77191 | -117.26694 | 2569 ft | 99 kts | 295° |
| 2026-05-05 05:35 | 32.77557 | -117.27387 | 2716 ft | 99 kts | 296° |
| 2026-05-05 05:35 | 32.77928 | -117.28085 | 2851 ft | 100 kts | 296° |
| 2026-05-05 05:36 | 32.78298 | -117.28780 | 3005 ft | 99 kts | 297° |
| 2026-05-05 05:36 | 32.78666 | -117.29475 | 3142 ft | 100 kts | 296° |
| 2026-05-05 05:36 | 32.79037 | -117.30179 | 3281 ft | 100 kts | 297° |
| 2026-05-05 05:36 | 32.79408 | -117.30878 | 3432 ft | 100 kts | 297° |
| 2026-05-05 05:37 | 32.79778 | -117.31571 | 3581 ft | 99 kts | 297° |
| 2026-05-05 05:37 | 32.80197 | -117.32233 | 3707 ft | 101 kts | 301° |
| 2026-05-05 05:37 | 32.80621 | -117.32888 | 3859 ft | 100 kts | 303° |
| 2026-05-05 05:37 | 32.81048 | -117.33545 | 3999 ft | 101 kts | 303° |
| 2026-05-05 05:38 | 32.81474 | -117.34205 | 4157 ft | 101 kts | 302° |
| 2026-05-05 05:38 | 32.81900 | -117.34868 | 4314 ft | 101 kts | 303° |
| 2026-05-05 05:38 | 32.82329 | -117.35532 | 4457 ft | 102 kts | 304° |
| 2026-05-05 05:38 | 32.82760 | -117.36197 | 4608 ft | 102 kts | 304° |
| 2026-05-05 05:39 | 32.83190 | -117.36865 | 4769 ft | 101 kts | 302° |
| 2026-05-05 05:39 | 32.83617 | -117.37530 | 4914 ft | 102 kts | 303° |
| 2026-05-05 05:39 | 32.84052 | -117.38207 | 5169 ft | 105 kts | 303° |
| 2026-05-05 05:39 | 32.84468 | -117.38862 | 5926 ft | 97 kts | 302° |
| 2026-05-05 05:40 | 32.84882 | -117.39513 | 6602 ft | 99 kts | 301° |
| 2026-05-05 05:40 | 32.85305 | -117.40175 | 7196 ft | 101 kts | 301° |
| 2026-05-05 05:40 | 32.85736 | -117.40844 | 7805 ft | 103 kts | 302° |
| 2026-05-05 05:40 | 32.86228 | -117.41612 | 7994 ft | 135 kts | 302° |
| 2026-05-05 05:41 | 32.86832 | -117.42535 | 7993 ft | 145 kts | 303° |
| 2026-05-05 05:41 | 32.87462 | -117.43496 | 7989 ft | 149 kts | 303° |
| 2026-05-05 05:41 | 32.88087 | -117.44461 | 7982 ft | 146 kts | 303° |
| 2026-05-05 05:41 | 32.88699 | -117.45408 | 7980 ft | 143 kts | 302° |
| 2026-05-05 05:42 | 32.89294 | -117.46336 | 7981 ft | 142 kts | 303° |
| 2026-05-05 05:42 | 32.89902 | -117.47281 | 7979 ft | 142 kts | 302° |
| 2026-05-05 05:42 | 32.90491 | -117.48197 | 7977 ft | 141 kts | 303° |
| 2026-05-05 05:42 | 32.91088 | -117.49126 | 7977 ft | 141 kts | 302° |
| 2026-05-05 05:43 | 32.91684 | -117.50055 | 7976 ft | 142 kts | 303° |
| 2026-05-05 05:43 | 32.92284 | -117.50987 | 7973 ft | 142 kts | 303° |
| 2026-05-05 05:43 | 32.92883 | -117.51922 | 7972 ft | 142 kts | 303° |
| 2026-05-05 05:43 | 32.93483 | -117.52854 | 7972 ft | 142 kts | 303° |
| 2026-05-05 05:44 | 32.94081 | -117.53788 | 7970 ft | 142 kts | 302° |
| 2026-05-05 05:44 | 32.94680 | -117.54720 | 7972 ft | 143 kts | 303° |
| 2026-05-05 05:44 | 32.95318 | -117.55728 | 7971 ft | 162 kts | 303° |
| 2026-05-05 05:44 | 32.96023 | -117.56827 | 7973 ft | 171 kts | 303° |
| 2026-05-05 05:45 | 32.96754 | -117.57963 | 7975 ft | 174 kts | 303° |
| 2026-05-05 05:45 | 32.97492 | -117.59111 | 7969 ft | 175 kts | 303° |
| 2026-05-05 05:45 | 32.98231 | -117.60263 | 7971 ft | 175 kts | 304° |
| 2026-05-05 05:45 | 32.98972 | -117.61419 | 7971 ft | 175 kts | 303° |
| 2026-05-05 05:46 | 32.99711 | -117.62572 | 7971 ft | 175 kts | 304° |
| 2026-05-05 05:46 | 33.00450 | -117.63727 | 7970 ft | 175 kts | 304° |
| 2026-05-05 05:46 | 33.01190 | -117.64881 | 7969 ft | 175 kts | 304° |
| 2026-05-05 05:46 | 33.01929 | -117.66037 | 7971 ft | 176 kts | 304° |
| 2026-05-05 05:47 | 33.02669 | -117.67194 | 7971 ft | 175 kts | 303° |
| 2026-05-05 05:47 | 33.03410 | -117.68350 | 7970 ft | 175 kts | 304° |
| 2026-05-05 05:47 | 33.04148 | -117.69506 | 7971 ft | 175 kts | 304° |
| 2026-05-05 05:47 | 33.04887 | -117.70661 | 7972 ft | 175 kts | 304° |
| 2026-05-05 05:48 | 33.05627 | -117.71819 | 7970 ft | 175 kts | 304° |
| 2026-05-05 05:48 | 33.06383 | -117.72963 | 7970 ft | 177 kts | 310° |
| 2026-05-05 05:48 | 33.07319 | -117.73932 | 7968 ft | 179 kts | 316° |
| 2026-05-05 05:48 | 33.08265 | -117.74889 | 7966 ft | 178 kts | 316° |
| 2026-05-05 05:49 | 33.09210 | -117.75848 | 7967 ft | 178 kts | 315° |
| 2026-05-05 05:49 | 33.10154 | -117.76810 | 7963 ft | 179 kts | 316° |
| 2026-05-05 05:49 | 33.11101 | -117.77772 | 7965 ft | 179 kts | 315° |
| 2026-05-05 05:49 | 33.12046 | -117.78733 | 7966 ft | 179 kts | 316° |
| 2026-05-05 05:50 | 33.12990 | -117.79694 | 7966 ft | 178 kts | 315° |
| 2026-05-05 05:50 | 33.13936 | -117.80655 | 7966 ft | 179 kts | 316° |
| 2026-05-05 05:50 | 33.14882 | -117.81619 | 7967 ft | 179 kts | 316° |
| 2026-05-05 05:50 | 33.15830 | -117.82584 | 7965 ft | 179 kts | 315° |
| 2026-05-05 05:51 | 33.16777 | -117.83549 | 7967 ft | 179 kts | 316° |
| 2026-05-05 05:51 | 33.17721 | -117.84510 | 7967 ft | 178 kts | 315° |
| 2026-05-05 05:51 | 33.18666 | -117.85473 | 7965 ft | 179 kts | 316° |
| 2026-05-05 05:51 | 33.19735 | -117.86249 | 7967 ft | 184 kts | 335° |
| 2026-05-05 05:52 | 33.20970 | -117.86611 | 7968 ft | 186 kts | 345° |
| 2026-05-05 05:52 | 33.22221 | -117.86910 | 7963 ft | 179 kts | 345° |
| 2026-05-05 05:52 | 33.23416 | -117.87203 | 7961 ft | 172 kts | 345° |
| 2026-05-05 05:52 | 33.24575 | -117.87492 | 7960 ft | 168 kts | 344° |
| 2026-05-05 05:53 | 33.25712 | -117.87776 | 7958 ft | 164 kts | 344° |
| 2026-05-05 05:53 | 33.26759 | -117.88029 | 7949 ft | 145 kts | 343° |
| 2026-05-05 05:53 | 33.27706 | -117.88265 | 7951 ft | 134 kts | 342° |
| 2026-05-05 05:53 | 33.28599 | -117.88488 | 7952 ft | 128 kts | 343° |
| 2026-05-05 05:54 | 33.29460 | -117.88703 | 7948 ft | 125 kts | 342° |
| 2026-05-05 05:54 | 33.30299 | -117.88915 | 7951 ft | 122 kts | 342° |
| 2026-05-05 05:54 | 33.31173 | -117.89140 | 7968 ft | 140 kts | 343° |
| 2026-05-05 05:54 | 33.32184 | -117.89396 | 7968 ft | 154 kts | 343° |
| 2026-05-05 05:55 | 33.33259 | -117.89661 | 7969 ft | 161 kts | 344° |
| 2026-05-05 05:55 | 33.34365 | -117.89934 | 7971 ft | 164 kts | 344° |
| 2026-05-05 05:55 | 33.35483 | -117.90211 | 7969 ft | 164 kts | 344° |
| 2026-05-05 05:55 | 33.36603 | -117.90490 | 7970 ft | 165 kts | 344° |
| 2026-05-05 05:56 | 33.37724 | -117.90772 | 7971 ft | 164 kts | 344° |
| 2026-05-05 05:56 | 33.38832 | -117.91095 | 7968 ft | 163 kts | 338° |
| 2026-05-05 05:56 | 33.39918 | -117.91494 | 7969 ft | 164 kts | 339° |
| 2026-05-05 05:56 | 33.41011 | -117.91887 | 7970 ft | 164 kts | 339° |
| 2026-05-05 05:57 | 33.42111 | -117.92284 | 7975 ft | 166 kts | 339° |
| 2026-05-05 05:57 | 33.43221 | -117.92687 | 7973 ft | 167 kts | 339° |
| 2026-05-05 05:57 | 33.44333 | -117.93090 | 7975 ft | 167 kts | 339° |
| 2026-05-05 05:57 | 33.45444 | -117.93494 | 7976 ft | 166 kts | 339° |
| 2026-05-05 05:58 | 33.46547 | -117.93894 | 7977 ft | 165 kts | 339° |
| 2026-05-05 05:58 | 33.47650 | -117.94296 | 7970 ft | 168 kts | 339° |
| 2026-05-05 05:58 | 33.48813 | -117.94723 | 7972 ft | 179 kts | 340° |
| 2026-05-05 05:58 | 33.50026 | -117.95164 | 7970 ft | 184 kts | 340° |
| 2026-05-05 05:59 | 33.51261 | -117.95611 | 7972 ft | 186 kts | 340° |
| 2026-05-05 05:59 | 33.52507 | -117.96064 | 7970 ft | 187 kts | 340° |
| 2026-05-05 05:59 | 33.53756 | -117.96517 | 7971 ft | 188 kts | 340° |
| 2026-05-05 05:59 | 33.55007 | -117.96973 | 7971 ft | 188 kts | 340° |
| 2026-05-05 06:00 | 33.56259 | -117.97428 | 7971 ft | 188 kts | 340° |
| 2026-05-05 06:00 | 33.57509 | -117.97884 | 7972 ft | 188 kts | 340° |
| 2026-05-05 06:00 | 33.58759 | -117.98339 | 7971 ft | 187 kts | 340° |
| 2026-05-05 06:00 | 33.60001 | -117.98790 | 7994 ft | 185 kts | 340° |
| 2026-05-05 06:01 | 33.61237 | -117.99242 | 7993 ft | 186 kts | 340° |
| 2026-05-05 06:01 | 33.62475 | -117.99694 | 7994 ft | 186 kts | 340° |
| 2026-05-05 06:01 | 33.63710 | -118.00145 | 8001 ft | 185 kts | 340° |
| 2026-05-05 06:01 | 33.64946 | -118.00597 | 8004 ft | 185 kts | 339° |
| 2026-05-05 06:02 | 33.66166 | -118.01042 | 8008 ft | 187 kts | 340° |
| 2026-05-05 06:02 | 33.67413 | -118.01497 | 8003 ft | 187 kts | 339° |
| 2026-05-05 06:02 | 33.68659 | -118.01950 | 8004 ft | 187 kts | 340° |
| 2026-05-05 06:02 | 33.69906 | -118.02406 | 8002 ft | 188 kts | 339° |
| 2026-05-05 06:03 | 33.71158 | -118.02864 | 8003 ft | 188 kts | 340° |
| 2026-05-05 06:03 | 33.72412 | -118.03324 | 8001 ft | 189 kts | 340° |
| 2026-05-05 06:03 | 33.73671 | -118.03784 | 8002 ft | 189 kts | 339° |
| 2026-05-05 06:03 | 33.74909 | -118.04233 | 7995 ft | 176 kts | 340° |
| 2026-05-05 06:04 | 33.76026 | -118.04636 | 7963 ft | 161 kts | 339° |
| 2026-05-05 06:04 | 33.77108 | -118.04831 | 7980 ft | 157 kts | 0° |
| 2026-05-05 06:04 | 33.78153 | -118.04489 | 7980 ft | 157 kts | 26° |
| 2026-05-05 06:04 | 33.78991 | -118.03672 | 7984 ft | 155 kts | 51° |
| 2026-05-05 06:05 | 33.79518 | -118.02550 | 7982 ft | 154 kts | 66° |
| 2026-05-05 06:05 | 33.79984 | -118.01391 | 7978 ft | 154 kts | 66° |
| 2026-05-05 06:05 | 33.80449 | -118.00237 | 7979 ft | 153 kts | 66° |
| 2026-05-05 06:05 | 33.80914 | -117.99085 | 7981 ft | 153 kts | 66° |
| 2026-05-05 06:06 | 33.81380 | -117.97933 | 8007 ft | 153 kts | 65° |
| 2026-05-05 06:06 | 33.81859 | -117.96787 | 8005 ft | 153 kts | 64° |
| 2026-05-05 06:06 | 33.82350 | -117.95650 | 8005 ft | 153 kts | 64° |
| 2026-05-05 06:06 | 33.82855 | -117.94520 | 8013 ft | 154 kts | 63° |
| 2026-05-05 06:07 | 33.83386 | -117.93372 | 7866 ft | 162 kts | 62° |
| 2026-05-05 06:07 | 33.83951 | -117.92174 | 7650 ft | 165 kts | 62° |
| 2026-05-05 06:07 | 33.84536 | -117.90964 | 7430 ft | 169 kts | 61° |
| 2026-05-05 06:07 | 33.85137 | -117.89739 | 7204 ft | 171 kts | 61° |
| 2026-05-05 06:08 | 33.85751 | -117.88512 | 6980 ft | 171 kts | 60° |
| 2026-05-05 06:08 | 33.86368 | -117.87298 | 6714 ft | 165 kts | 60° |
| 2026-05-05 06:08 | 33.86986 | -117.86084 | 6036 ft | 180 kts | 60° |
| 2026-05-05 06:08 | 33.87637 | -117.84826 | 5661 ft | 175 kts | 57° |
| 2026-05-05 06:09 | 33.88430 | -117.83731 | 5241 ft | 173 kts | 51° |
| 2026-05-05 06:09 | 33.88942 | -117.82465 | 4859 ft | 169 kts | 86° |
| 2026-05-05 06:09 | 33.88637 | -117.81161 | 4481 ft | 162 kts | 131° |
| 2026-05-05 06:09 | 33.87762 | -117.80385 | 4000 ft | 154 kts | 154° |
| 2026-05-05 06:10 | 33.86805 | -117.79766 | 3324 ft | 157 kts | 155° |
| 2026-05-05 06:10 | 33.85842 | -117.79179 | 2684 ft | 154 kts | 162° |
| 2026-05-05 06:10 | 33.84836 | -117.78805 | 2213 ft | 143 kts | 167° |
| 2026-05-05 06:10 | 33.83887 | -117.78478 | 2201 ft | 137 kts | 167° |
| 2026-05-05 06:11 | 33.82983 | -117.78163 | 2206 ft | 133 kts | 168° |
| 2026-05-05 06:11 | 33.82085 | -117.78218 | 2206 ft | 129 kts | 190° |
| 2026-05-05 06:11 | 33.81194 | -117.78375 | 2203 ft | 129 kts | 198° |
| 2026-05-05 06:11 | 33.80380 | -117.78801 | 2206 ft | 126 kts | 207° |
| 2026-05-05 06:12 | 33.79588 | -117.79263 | 2202 ft | 128 kts | 208° |
| 2026-05-05 06:12 | 33.78787 | -117.79745 | 2200 ft | 130 kts | 208° |
| 2026-05-05 06:12 | 33.77987 | -117.80254 | 2201 ft | 134 kts | 211° |
| 2026-05-05 06:12 | 33.77115 | -117.80806 | 2064 ft | 148 kts | 210° |
| 2026-05-05 06:13 | 33.76180 | -117.81404 | 1858 ft | 156 kts | 210° |
| 2026-05-05 06:13 | 33.75209 | -117.82020 | 1639 ft | 160 kts | 210° |
| 2026-05-05 06:13 | 33.74262 | -117.82625 | 1424 ft | 144 kts | 210° |
| 2026-05-05 06:13 | 33.73464 | -117.83131 | 1256 ft | 114 kts | 210° |
| 2026-05-05 06:14 | 33.72839 | -117.83529 | 1120 ft | 90 kts | 211° |
| 2026-05-05 06:14 | 33.72312 | -117.83863 | 996 ft | 83 kts | 211° |
| 2026-05-05 06:14 | 33.71797 | -117.84189 | 880 ft | 86 kts | 212° |
| 2026-05-05 06:14 | 33.71256 | -117.84535 | 755 ft | 92 kts | 211° |
| 2026-05-05 06:15 | 33.70685 | -117.84895 | 636 ft | 93 kts | 210° |
| 2026-05-05 06:15 | 33.70124 | -117.85252 | 508 ft | 88 kts | 210° |
| 2026-05-05 06:15 | 33.69581 | -117.85601 | 393 ft | 88 kts | 211° |
| 2026-05-05 06:15 | 33.69045 | -117.85944 | 274 ft | 86 kts | 212° |
| 2026-05-05 06:16 | 33.68526 | -117.86270 | 186 ft | 83 kts | 212° |
| 2026-05-05 06:16 | 33.68019 | -117.86599 | 85 ft | 83 kts | 210° |
| 2026-05-05 06:16 | 33.67559 | -117.86893 | 55 ft | 64 kts | 214° |
| 2026-05-05 06:16 | 33.67262 | -117.87090 | 57 ft | 25 kts | 208° |
| 2026-05-05 06:17 | 33.67057 | -117.87221 | 61 ft | 29 kts | 211° |
| 2026-05-05 06:17 | 33.66982 | -117.87317 | 63 ft | 16 kts | 309° |
| 2026-05-05 06:17 | 33.67090 | -117.87337 | 57 ft | 19 kts | 31° |
| 2026-05-05 06:17 | 33.67220 | -117.87257 | 54 ft | 22 kts | 28° |
| 2026-05-05 06:18 | 33.67329 | -117.87190 | 55 ft | 10 kts | 11° |
| 2026-05-05 06:18 | 33.67378 | -117.87251 | 54 ft | 4 kts | 300° |